Terminal Aerodrome Forecast
Issued by NWS Bismarck, ND

Home | Current Version | Previous Version | Text Only | Print | Product List | Glossary On
Versions: 1 2 3 4 5 6 7 8 9 10 11 12 13 14 15 16 17 18 19
000
FTUS43 KBIS 200500
TAFBIS
TAF
KBIS 200521Z 2006/2106 12003KT 3SM BR BKN002
      TEMPO 2006/2009 1/4SM FZFG OVC001
     FM200900 VRB03KT 1/4SM FZFG OVC002
     FM201700 20005KT P6SM SCT005 BKN150=

USA.gov is the U.S. government's official web portal to all federal, state and local government web resources and services.